Alyeska Resort
Max's Hourly Weather Roundup
ALYESKA_MAX 10/21/2017
Click Here for Graph

        DATE  TIME   Air  Wind  Wind  Wind  BATT   Rel
                    Temp   Spd   Dir  Gust  Volt  Hum%
                      F   MPH   AVG   MPH   AVG   AVG

  10/21/2017 12:00    19     7    16    10 14.01   100
  10/21/2017 11:00    19     7     8     9 13.20   100
  10/21/2017 10:00    19     4   114     8 12.68   100
  10/21/2017 09:00    19     4    80     5 12.64   100
  10/21/2017 08:00    19     4   188     6 12.64    98
  10/21/2017 07:00    20     4   113    13 12.64    91
  10/21/2017 06:00    20     8   107    20 12.64    91
  10/21/2017 05:00    20     7    88    20 12.65    94
  10/21/2017 04:00    19     4    70     8 12.66    98
  10/21/2017 03:00    18     3   146    12 12.68    99
  10/21/2017 02:00    18     3    93     8 12.71    96
  10/21/2017 01:00    18     5    44    12 12.75    89
  10/20/2017 24:00    19     7    65    15 12.79    82
  10/20/2017 23:00    18     8    63    17 12.85    79
  10/20/2017 22:00    18     6    69    14 12.91    78
  10/20/2017 21:00    18     4   139    14 13.01    81
  10/20/2017 20:00    17     4   154     9 13.17    82
  10/20/2017 19:00    18     3   170    12 13.53    81
  10/20/2017 18:00    19     3   182     7 13.81    80
  10/20/2017 17:00    20     3   156    10 13.70    76
  10/20/2017 16:00    18     4   207    10 13.66    79
  10/20/2017 15:00    16     4   209    10 13.64    79
  10/20/2017 14:00    16     3   219     8 13.62    77
  10/20/2017 13:00    14     3   198     8 13.62    79


Click Here for Graph